Time;durP1;ratioP1;P1;durP2;ratioP2;P2;SDS_P1;SDS_P2;PMS_P1;PMS_P2;Temp;Humidity;BMP_temperature;BMP_pressure;BME280_temperature;BME280_humidity;BME280_pressure;Samples;Min_cycle;Max_cycle;Signal;HPM_P1;HPM_P2
2022/10/03 00:01:37;;;;;;;1.87;1.77;;;13.40;98.20;;;13.55;64.47;94963.38;5026389;28;20539;-53
2022/10/03 00:04:17;;;;;;;1.60;1.50;;;13.40;98.10;;;13.55;64.23;94973.94;5024004;28;20460;-55
2022/10/03 00:06:52;;;;;;;6.83;1.83;;;13.30;98.20;;;13.54;63.79;94960.88;5028377;28;20441;-57
2022/10/03 00:09:33;;;;;;;2.27;2.07;;;13.30;98.10;;;13.53;64.01;94946.84;5028071;28;20480;-58
2022/10/03 00:12:11;;;;;;;3.07;1.10;;;13.30;98.10;;;13.54;64.21;94948.53;5025995;28;20471;-57
2022/10/03 00:14:45;;;;;;;1.47;1.37;;;13.30;98.20;;;13.55;63.95;94944.88;5026344;28;20476;-57
2022/10/03 00:17:16;;;;;;;1.40;1.23;;;13.30;98.10;;;13.56;63.69;94938.63;5026385;28;21047;-55
2022/10/03 00:19:51;;;;;;;3.30;1.90;;;13.30;98.10;;;13.56;63.64;94932.50;5023950;28;20480;-55
2022/10/03 00:22:27;;;;;;;1.30;1.20;;;13.40;98.10;;;13.56;63.56;94938.63;5027901;28;20460;-56
2022/10/03 00:25:03;;;;;;;1.63;1.53;;;13.40;98.10;;;13.55;63.73;94939.59;5027061;28;20484;-56
2022/10/03 00:27:36;;;;;;;2.27;1.40;;;13.30;98.10;;;13.53;63.48;94932.81;5027846;28;20842;-55
2022/10/03 00:30:13;;;;;;;3.47;1.67;;;13.30;98.10;;;13.53;64.12;94930.19;5025195;28;20469;-57
2022/10/03 00:33:02;;;;;;;1.33;1.20;;;13.30;98.30;;;13.53;63.77;94936.28;5023748;28;20452;-56
2022/10/03 00:36:03;;;;;;;1.50;1.40;;;13.30;98.30;;;13.52;64.23;94933.81;5023826;28;20473;-54
2022/10/03 00:39:14;;;;;;;8.40;1.47;;;13.30;98.40;;;13.51;64.01;94935.63;5022627;28;20725;-54
2022/10/03 00:42:16;;;;;;;2.70;1.60;;;13.30;98.30;;;13.48;64.15;94933.28;5025591;28;20514;-55
2022/10/03 00:45:18;;;;;;;2.37;1.93;;;13.30;98.30;;;13.48;63.99;94935.94;5027662;28;20487;-56
2022/10/03 00:48:12;;;;;;;1.77;1.27;;;13.20;98.40;;;13.47;63.62;94946.66;4973723;28;20486;-56
2022/10/03 00:51:19;;;;;;;1.90;1.80;;;13.20;98.20;;;13.45;63.64;94936.25;5026628;28;20477;-58
2022/10/03 00:54:03;;;;;;;1.33;1.23;;;13.20;98.20;;;13.43;63.46;94943.47;5026046;28;20883;-56
2022/10/03 00:57:01;;;;;;;2.53;2.33;;;13.20;98.30;;;13.41;64.08;94934.88;5025547;28;20445;-56
2022/10/03 00:59:39;;;;;;;2.90;1.40;;;13.20;98.70;;;13.38;64.00;94927.28;5023539;28;20899;-56
2022/10/03 01:02:31;;;;;;;1.47;1.37;;;13.20;98.50;;;13.35;64.00;94925.75;5027293;28;20507;-57
2022/10/03 01:05:04;;;;;;;3.23;2.03;;;13.10;98.40;;;13.31;64.13;94926.19;5026625;28;20477;-55
2022/10/03 01:07:59;;;;;;;2.03;1.73;;;13.10;98.60;;;13.24;64.08;94933.91;5026565;28;20514;-54
2022/10/03 01:10:32;;;;;;;1.63;1.53;;;13.00;98.50;;;13.19;64.38;94920.38;5025602;28;20480;-54
2022/10/03 01:13:14;;;;;;;2.27;1.70;;;13.00;98.60;;;13.15;64.22;94924.28;5024040;28;20467;-56
2022/10/03 01:15:48;;;;;;;1.50;1.40;;;13.00;98.60;;;13.13;64.86;94921.78;5027202;28;20895;-56
2022/10/03 01:18:33;;;;;;;3.43;1.50;;;12.90;98.90;;;13.09;64.45;94925.75;5026889;28;20538;-54
2022/10/03 01:21:07;;;;;;;1.40;1.30;;;12.90;98.90;;;13.06;64.64;94912.84;5025305;28;21008;-58
2022/10/03 01:24:18;;;;;;;5.13;2.00;;;12.90;99.00;;;13.02;65.24;94908.84;5023456;28;20460;-57
2022/10/03 01:26:58;;;;;;;3.57;1.60;;;12.80;99.30;;;12.94;64.73;94900.88;5026528;28;20448;-56
2022/10/03 01:32:26;;;;;;;1.50;1.40;;;12.70;99.30;;;12.83;65.32;94908.06;4985383;28;20503;-57
2022/10/03 01:35:01;;;;;;;3.40;1.60;;;12.60;99.50;;;12.83;65.15;94905.41;5024349;28;20555;-56
2022/10/03 01:37:31;;;;;;;3.63;1.53;;;12.60;99.40;;;12.82;65.43;94906.38;5023097;28;20444;-55
2022/10/03 01:40:07;;;;;;;4.70;1.60;;;12.60;99.70;;;12.83;65.83;94912.50;5026451;28;20504;-54
2022/10/03 01:42:40;;;;;;;1.63;1.53;;;12.60;99.90;;;12.83;65.37;94905.41;5023276;28;20478;-56
2022/10/03 01:45:25;;;;;;;1.63;1.50;;;12.60;99.80;;;12.83;65.77;94905.41;5025527;28;20806;-53
2022/10/03 01:47:57;;;;;;;6.40;1.70;;;12.60;99.90;;;12.83;65.70;94904.59;5026644;28;20515;-56
2022/10/03 01:50:30;;;;;;;3.53;1.50;;;12.60;99.90;;;12.82;65.56;94903.75;5022579;28;20499;-56
2022/10/03 01:53:02;;;;;;;2.40;1.93;;;12.60;99.80;;;12.80;65.72;94900.44;5026553;28;20514;-53
2022/10/03 01:55:36;;;;;;;4.60;2.00;;;12.60;99.90;;;12.80;65.89;94899.63;5022377;28;20576;-56
2022/10/03 01:58:07;;;;;;;2.50;2.00;;;12.60;99.90;;;12.77;65.91;94899.91;5026431;28;20559;-55
2022/10/03 02:00:42;;;;;;;3.70;1.90;;;12.60;99.90;;;12.81;65.88;94893.34;5023905;28;20837;-54
2022/10/03 02:03:14;;;;;;;2.90;1.93;;;12.60;99.90;;;12.79;66.05;94904.03;5026093;28;20449;-53
2022/10/03 02:05:49;;;;;;;1.63;1.53;;;12.60;99.90;;;12.78;65.70;94891.84;5022443;28;20477;-56
2022/10/03 02:08:26;;;;;;;2.10;2.00;;;12.60;99.90;;;12.79;66.19;94898.78;5026071;28;20468;-56
2022/10/03 02:10:59;;;;;;;2.33;2.00;;;12.60;99.90;;;12.81;66.16;94891.53;5023102;28;20496;-56
2022/10/03 02:13:29;;;;;;;3.23;1.80;;;12.60;99.90;;;12.81;66.03;94888.06;5025730;28;20552;-54
2022/10/03 02:16:02;;;;;;;3.30;1.60;;;12.60;99.90;;;12.83;66.79;94897.50;5026044;28;21027;-56
2022/10/03 02:18:45;;;;;;;1.87;1.77;;;12.60;99.90;;;12.84;66.75;94891.25;5025638;28;20484;-59
2022/10/03 02:21:15;;;;;;;3.03;1.87;;;12.60;99.90;;;12.85;66.37;94890.25;5025448;28;20444;-56
2022/10/03 02:23:44;;;;;;;3.20;1.63;;;12.60;99.90;;;12.85;66.31;94894.69;5022673;28;20449;-54
2022/10/03 02:26:56;;;;;;;1.27;1.17;;;12.70;99.90;;;12.85;66.37;94887.59;5026017;28;20472;-54
2022/10/03 02:29:55;;;;;;;10.60;1.70;;;12.70;99.90;;;12.85;66.65;94898.16;5003575;28;20558;-55
2022/10/03 02:33:09;;;;;;;2.47;2.27;;;12.70;99.90;;;12.85;66.35;94895.53;5025170;28;20452;-56
2022/10/03 02:36:16;;;;;;;5.10;2.63;;;12.70;99.90;;;12.78;66.12;94899.78;5024564;28;21004;-57
2022/10/03 02:39:25;;;;;;;12.30;2.43;;;12.60;99.90;;;12.70;65.66;94899.69;5023879;28;20575;-56
2022/10/03 02:42:31;;;;;;;2.70;2.30;;;12.50;99.90;;;12.64;65.91;94900.28;4981255;28;20457;-57
2022/10/03 02:45:57;;;;;;;2.27;2.10;;;12.50;99.90;;;12.60;66.44;94905.06;4999637;28;20476;-55
2022/10/03 02:49:18;;;;;;;2.43;2.20;;;12.40;99.90;;;12.57;66.02;94905.34;4926138;29;20453;-58
2022/10/03 02:52:45;;;;;;;4.80;2.40;;;12.40;99.90;;;12.55;66.32;94902.03;4881379;29;20462;-55
2022/10/03 02:55:27;;;;;;;2.60;2.03;;;12.40;99.90;;;12.53;66.10;94894.28;4989260;28;20476;-55
2022/10/03 02:58:56;;;;;;;3.00;2.60;;;12.40;99.90;;;12.53;66.23;94894.28;5028107;28;20457;-57
2022/10/03 03:01:53;;;;;;;4.80;2.23;;;12.30;99.90;;;12.52;66.39;94903.16;4966541;28;20532;-57
2022/10/03 03:05:00;;;;;;;10.47;2.20;;;12.30;99.90;;;12.53;66.47;94904.84;5028720;28;20500;-55
2022/10/03 03:07:58;;;;;;;4.60;1.93;;;12.30;99.90;;;12.52;66.48;94897.06;5026223;28;20509;-56
2022/10/03 03:11:07;;;;;;;6.87;2.10;;;12.30;99.90;;;12.52;66.46;94899.72;5029055;28;20472;-54
2022/10/03 03:14:24;;;;;;;5.73;2.23;;;12.30;99.90;;;12.50;66.73;94897.22;5028678;28;20463;-56
2022/10/03 03:16:59;;;;;;;4.13;1.80;;;12.30;99.90;;;12.50;66.25;94899.84;5014851;28;20995;-56
2022/10/03 03:19:44;;;;;;;2.13;1.60;;;12.30;99.90;;;12.51;67.12;94890.13;5028491;28;20492;-56
2022/10/03 03:22:31;;;;;;;7.03;2.20;;;12.30;99.90;;;12.51;66.60;94890.13;5027642;28;20468;-56
2022/10/03 03:25:38;;;;;;;15.23;2.17;;;12.30;99.90;;;12.50;67.06;94891.94;5027811;28;21116;-55
2022/10/03 03:28:20;;;;;;;3.63;2.50;;;12.30;99.90;;;12.49;66.56;94892.91;5028813;28;20452;-57
2022/10/03 03:30:52;;;;;;;7.17;2.37;;;12.30;99.90;;;12.51;66.72;94890.94;5025029;28;20472;-55
2022/10/03 03:33:26;;;;;;;13.27;1.90;;;12.30;99.90;;;12.52;66.99;94881.25;5029224;28;20480;-57
2022/10/03 03:36:01;;;;;;;11.63;1.97;;;12.30;99.90;;;12.52;66.70;94882.06;5025679;28;20464;-55
2022/10/03 03:38:33;;;;;;;11.70;3.30;;;12.30;99.90;;;12.52;66.81;94876.78;5028718;28;20459;-56
2022/10/03 03:41:23;;;;;;;16.07;2.40;;;12.40;99.90;;;12.54;66.90;94866.06;5026394;28;20483;-55
2022/10/03 03:44:13;;;;;;;14.50;2.50;;;12.30;99.90;;;12.55;67.02;94879.13;5027471;28;20443;-55
2022/10/03 03:46:49;;;;;;;9.60;2.30;;;12.40;99.90;;;12.58;67.02;94879.78;5026633;28;20452;-56
2022/10/03 03:49:31;;;;;;;11.60;2.73;;;12.40;99.90;;;12.59;66.81;94878.81;5026923;28;20989;-55
2022/10/03 03:52:23;;;;;;;12.40;3.00;;;12.40;99.90;;;12.59;67.18;94866.44;5028681;28;20456;-56
2022/10/03 03:55:29;;;;;;;12.70;2.97;;;12.40;99.90;;;12.61;67.20;94869.78;5025447;28;20564;-56
2022/10/03 03:58:08;;;;;;;8.43;2.90;;;12.40;99.90;;;12.60;66.93;94875.22;5021803;28;20529;-55
2022/10/03 04:01:10;;;;;;;22.13;2.80;;;12.40;99.90;;;12.61;67.09;94871.56;5028104;28;20944;-56
2022/10/03 04:03:53;;;;;;;6.90;2.60;;;12.40;99.90;;;12.64;67.12;94873.91;5025359;28;20464;-54
2022/10/03 04:06:34;;;;;;;9.90;3.00;;;12.40;99.90;;;12.65;66.88;94865.00;5028739;28;20452;-57
2022/10/03 04:09:28;;;;;;;12.33;3.10;;;12.50;99.90;;;12.66;66.86;94869.31;5027184;28;20827;-55
2022/10/03 04:12:00;;;;;;;12.67;2.33;;;12.50;99.90;;;12.65;66.88;94863.19;5025684;28;20453;-57
2022/10/03 04:15:03;;;;;;;16.33;3.27;;;12.50;99.90;;;12.68;66.81;94852.34;5028310;28;20488;-55
2022/10/03 04:20:57;;;;;;;9.63;3.00;;;12.50;99.90;;;12.69;66.99;94848.72;5027202;28;20545;-55
2022/10/03 04:23:45;;;;;;;11.70;2.33;;;12.50;99.90;;;12.70;66.82;94852.19;5028025;28;20511;-56
2022/10/03 04:26:24;;;;;;;12.27;2.40;;;12.50;99.90;;;12.72;67.07;94863.44;5027602;28;20962;-56
2022/10/03 04:29:42;;;;;;;10.93;2.53;;;12.50;99.90;;;12.74;67.19;94856.19;5027991;28;20448;-56
2022/10/03 04:32:20;;;;;;;6.13;2.63;;;12.50;99.90;;;12.76;66.71;94846.28;4946194;28;20982;-56
2022/10/03 04:35:02;;;;;;;6.10;2.50;;;12.60;99.90;;;12.77;67.03;94847.97;4945962;28;20791;-53
2022/10/03 04:37:34;;;;;;;5.80;2.70;;;12.60;99.90;;;12.81;66.87;94856.38;5003789;28;20453;-55
2022/10/03 04:40:17;;;;;;;8.70;2.13;;;12.60;99.90;;;12.84;67.14;94864.00;5027219;28;21028;-56
2022/10/03 04:42:52;;;;;;;4.93;2.47;;;12.70;99.90;;;12.87;67.00;94861.91;5025832;28;20507;-55
2022/10/03 04:45:39;;;;;;;4.83;2.10;;;12.70;99.90;;;12.89;66.98;94857.28;5024239;28;20472;-58
2022/10/03 04:48:15;;;;;;;5.47;2.20;;;12.70;99.90;;;12.93;67.03;94851.69;5024000;28;20463;-55
2022/10/03 04:50:45;;;;;;;4.40;2.67;;;12.70;99.90;;;12.96;66.81;94851.38;5027083;28;20476;-56
2022/10/03 04:53:23;;;;;;;13.93;3.00;;;12.70;99.90;;;12.98;66.69;94852.03;5027193;28;20536;-54
2022/10/03 04:55:54;;;;;;;11.43;2.73;;;12.70;99.90;;;13.01;66.44;94854.38;5027183;28;20464;-56
2022/10/03 04:58:33;;;;;;;18.37;3.87;;;12.80;99.90;;;13.04;66.75;94851.44;5027049;28;20839;-56
2022/10/03 05:01:11;;;;;;;12.63;2.47;;;12.80;99.90;;;13.06;66.60;94852.13;5023073;28;20515;-56
2022/10/03 05:03:46;;;;;;;6.13;2.30;;;12.80;99.90;;;13.09;66.62;94851.81;5027635;28;20459;-57
2022/10/03 05:06:35;;;;;;;5.30;2.43;;;12.90;99.90;;;13.09;66.00;94849.16;5027752;28;20448;-56
2022/10/03 05:09:12;;;;;;;6.90;2.33;;;12.90;99.90;;;13.06;66.18;94846.84;5024660;28;20441;-57
2022/10/03 05:11:49;;;;;;;6.23;2.40;;;12.90;99.90;;;13.08;66.50;94852.78;5026479;28;20763;-56
2022/10/03 05:14:24;;;;;;;30.70;2.63;;;12.90;99.90;;;13.12;66.79;94851.50;5026950;28;20567;-56
2022/10/03 05:16:55;;;;;;;9.47;2.23;;;12.90;99.90;;;13.16;66.62;94852.00;5026945;28;20448;-55
2022/10/03 05:20:03;;;;;;;11.60;2.40;;;12.90;99.90;;;13.18;66.50;94853.50;5025484;28;20492;-55
2022/10/03 05:22:44;;;;;;;4.00;2.80;;;12.90;99.90;;;13.23;66.82;94850.38;5020295;28;20457;-54
2022/10/03 05:25:24;;;;;;;3.43;2.60;;;13.00;99.90;;;13.25;66.53;94845.78;5024261;28;20544;-57
2022/10/03 05:27:54;;;;;;;9.63;3.23;;;13.00;99.90;;;13.31;66.05;94837.22;5023259;28;20456;-57
2022/10/03 05:30:34;;;;;;;17.33;3.40;;;13.10;99.90;;;13.34;65.88;94825.53;5026339;28;20476;-56
2022/10/03 05:33:05;;;;;;;10.23;3.17;;;13.10;99.90;;;13.33;66.02;94822.06;5025910;28;20473;-56
2022/10/03 05:35:45;;;;;;;6.77;2.60;;;13.10;99.90;;;13.35;66.06;94827.19;5026913;28;20476;-55
2022/10/03 05:38:28;;;;;;;8.07;3.53;;;13.10;99.90;;;13.33;66.13;94821.22;5024332;28;20448;-56
2022/10/03 05:41:03;;;;;;;14.67;3.17;;;13.10;99.90;;;13.38;66.14;94830.34;5023681;28;20496;-54
2022/10/03 05:43:46;;;;;;;4.70;3.20;;;13.20;99.90;;;13.47;66.11;94825.94;5025981;28;20489;-56
2022/10/03 05:46:22;;;;;;;16.60;3.60;;;13.20;99.90;;;13.57;66.29;94833.72;5025635;28;20456;-55
2022/10/03 05:48:53;;;;;;;10.63;3.07;;;13.30;99.90;;;13.68;66.21;94832.63;5025630;28;20547;-55
2022/10/03 05:51:47;;;;;;;12.40;3.50;;;13.40;99.90;;;13.79;65.69;94832.34;5026047;28;20996;-57
2022/10/03 05:54:47;;;;;;;6.90;3.37;;;13.50;99.90;;;13.89;65.73;94843.59;5025421;28;20469;-55
2022/10/03 05:57:48;;;;;;;10.60;4.03;;;13.60;99.90;;;14.01;65.29;94841.47;5025574;28;20453;-55
2022/10/03 06:00:21;;;;;;;13.20;3.30;;;13.70;99.90;;;14.12;64.87;94848.28;5022973;28;20992;-57
2022/10/03 06:03:29;;;;;;;15.57;3.60;;;13.80;99.90;;;14.23;66.34;94844.50;5025798;28;20833;-56
2022/10/03 06:06:18;;;;;;;7.17;3.00;;;14.00;99.90;;;14.37;65.93;94840.41;5002048;28;20469;-54
2022/10/03 06:09:15;;;;;;;7.70;3.13;;;14.10;99.90;;;14.48;65.04;94840.06;5024833;28;20445;-55
2022/10/03 06:12:04;;;;;;;17.33;3.53;;;14.20;99.90;;;14.58;65.46;94853.13;5026106;28;20468;-57
2022/10/03 06:14:50;;;;;;;10.90;3.77;;;14.30;99.90;;;14.69;64.66;94858.97;5024001;28;20791;-54
2022/10/03 06:17:31;;;;;;;10.27;3.50;;;14.40;99.90;;;14.78;64.18;94858.94;5022185;28;20453;-56
2022/10/03 06:20:03;;;;;;;15.87;3.23;;;14.50;99.90;;;14.86;64.06;94853.66;5025269;28;20897;-55
2022/10/03 06:22:47;;;;;;;11.77;3.80;;;14.60;99.90;;;14.95;64.18;94863.28;5025890;28;20449;-55
2022/10/03 06:25:45;;;;;;;11.03;4.00;;;14.60;99.90;;;15.04;64.36;94854.31;5022633;28;20587;-57
2022/10/03 06:28:41;;;;;;;10.23;3.87;;;14.70;99.90;;;15.13;64.21;94854.28;5025079;28;20876;-57
2022/10/03 06:31:48;;;;;;;3.87;3.57;;;14.80;99.90;;;15.23;63.72;94862.91;5025988;28;20469;-55
2022/10/03 06:34:49;;;;;;;9.10;3.40;;;14.90;99.90;;;15.32;63.38;94856.59;5023894;28;20846;-56
2022/10/03 06:38:04;;;;;;;9.87;3.20;;;15.00;99.70;;;15.39;62.99;94862.84;5022087;28;20451;-54
2022/10/03 06:41:41;;;;;;;13.40;4.70;;;15.10;99.60;;;15.50;62.88;94874.09;5022213;28;20496;-56
2022/10/03 06:44:31;;;;;;;13.73;4.43;;;15.20;99.40;;;15.58;62.80;94866.09;4993442;28;20559;-56
2022/10/03 06:47:21;;;;;;;12.90;4.83;;;15.30;99.30;;;15.62;62.70;94862.13;5022942;28;21608;-56
2022/10/03 06:50:46;;;;;;;15.37;5.50;;;15.30;99.20;;;15.66;62.52;94875.84;5022606;28;20555;-54
2022/10/03 06:53:37;;;;;;;18.47;5.50;;;15.40;99.10;;;15.67;62.61;94875.69;5024385;28;20452;-57
2022/10/03 06:56:48;;;;;;;7.97;4.67;;;15.40;99.10;;;15.66;62.56;94879.34;5025308;28;20535;-58
2022/10/03 06:59:36;;;;;;;15.30;5.40;;;15.40;99.00;;;15.60;62.36;94899.41;5024049;28;20843;-57
2022/10/03 07:03:11;;;;;;;13.03;4.10;;;15.40;98.90;;;15.50;63.36;94897.94;5024559;28;20441;-56
2022/10/03 07:06:11;;;;;;;9.97;3.43;;;15.30;99.20;;;15.37;63.18;94901.94;4957591;28;20487;-57
2022/10/03 07:09:34;;;;;;;8.57;3.20;;;15.20;99.20;;;15.27;63.71;94922.50;4962208;28;20870;-56
2022/10/03 07:12:33;;;;;;;6.70;3.47;;;15.10;99.50;;;15.17;64.10;94921.88;4966056;28;20454;-55
2022/10/03 07:15:48;;;;;;;7.23;3.53;;;15.00;99.90;;;15.06;64.53;94937.09;4962423;28;20529;-57
2022/10/03 07:19:20;;;;;;;13.53;3.70;;;14.90;99.90;;;14.99;65.12;94941.38;5007267;28;20537;-56
2022/10/03 07:22:48;;;;;;;7.90;3.10;;;14.80;99.90;;;14.92;65.53;94956.28;5026671;28;20467;-57
2022/10/03 07:26:12;;;;;;;3.23;2.93;;;14.70;99.90;;;14.84;65.81;94943.03;5024377;28;20476;-55
2022/10/03 07:29:38;;;;;;;10.53;4.23;;;14.60;99.90;;;14.79;66.00;94948.81;5009265;28;20510;-54
2022/10/03 07:32:28;;;;;;;6.67;3.70;;;14.60;99.90;;;14.78;66.16;94954.28;5026255;28;20460;-56
2022/10/03 07:38:58;;;;;;;6.50;3.17;;;14.50;99.90;;;14.76;66.61;94966.84;5024779;28;20428;-55
2022/10/03 07:41:51;;;;;;;6.37;3.90;;;14.50;99.90;;;14.77;66.91;94963.22;5025193;28;20559;-55
2022/10/03 07:45:07;;;;;;;4.27;3.03;;;14.50;99.90;;;14.78;67.31;94963.06;5025191;28;20807;-56
2022/10/03 07:48:18;;;;;;;10.60;3.63;;;14.50;99.90;;;14.81;67.27;94969.84;5026539;28;20452;-57
2022/10/03 07:50:51;;;;;;;7.37;2.93;;;14.50;99.90;;;14.82;66.61;94966.19;5025184;28;20472;-56
2022/10/03 07:53:47;;;;;;;6.97;4.67;;;14.60;99.90;;;14.86;66.80;94975.50;5028121;28;21026;-57
2022/10/03 07:56:32;;;;;;;20.37;5.97;;;14.60;99.90;;;14.88;66.82;94966.38;5027333;28;20452;-56
2022/10/03 07:59:33;;;;;;;16.70;7.27;;;14.60;99.90;;;14.93;67.28;94963.22;5028255;28;20522;-54
2022/10/03 08:02:21;;;;;;;7.00;4.63;;;14.70;99.90;;;14.96;66.72;94962.91;5025370;28;20444;-56
2022/10/03 08:05:17;;;;;;;4.07;3.30;;;14.70;99.90;;;15.01;67.16;94980.94;5025553;28;20472;-57
2022/10/03 08:08:17;;;;;;;5.37;3.30;;;14.70;99.90;;;15.06;67.56;94968.88;5027732;28;20527;-57
2022/10/03 08:11:14;;;;;;;3.43;2.90;;;14.80;99.90;;;15.12;66.84;94972.69;5024949;28;20551;-57
2022/10/03 08:13:57;;;;;;;6.70;1.87;;;14.80;99.90;;;15.15;66.82;94968.88;5027591;28;20545;-57
2022/10/03 08:17:04;;;;;;;3.53;2.07;;;14.90;99.90;;;15.23;66.92;94977.66;5025678;28;20460;-56
2022/10/03 08:20:31;;;;;;;1.50;1.40;;;15.00;99.90;;;15.29;67.53;94988.56;5025101;28;21076;-54
2022/10/03 08:23:15;;;;;;;3.80;1.50;;;15.00;99.90;;;15.31;66.85;94987.44;4989595;28;20544;-56
2022/10/03 08:25:56;;;;;;;1.60;1.50;;;15.00;99.90;;;15.34;66.54;94988.94;5026286;28;20461;-57
2022/10/03 08:28:42;;;;;;;1.40;1.20;;;15.10;99.90;;;15.36;66.78;94992.22;5027207;28;20498;-56
2022/10/03 08:31:47;;;;;;;2.90;1.20;;;15.10;99.90;;;15.36;66.24;94995.69;5024791;28;20472;-57
2022/10/03 08:34:34;;;;;;;2.97;1.30;;;15.10;99.90;;;15.36;66.02;94993.03;5023945;28;20476;-57
2022/10/03 08:37:42;;;;;;;1.37;1.23;;;15.10;99.90;;;15.38;66.29;94993.72;5024006;28;20560;-55
2022/10/03 08:41:01;;;;;;;1.67;1.10;;;15.10;99.90;;;15.42;66.33;95000.34;5027339;28;20496;-57
2022/10/03 08:44:17;;;;;;;1.83;1.30;;;15.20;99.90;;;15.48;67.07;94998.84;4993450;28;20453;-54
2022/10/03 08:47:11;;;;;;;2.60;1.30;;;15.20;99.90;;;15.55;67.55;94999.84;5020304;28;20514;-54
2022/10/03 08:50:15;;;;;;;2.30;1.47;;;15.30;99.90;;;15.63;67.41;94993.72;4991352;28;20476;-56
2022/10/03 08:52:59;;;;;;;1.97;1.40;;;15.30;99.90;;;15.79;67.16;94992.06;5023479;28;20463;-56
2022/10/03 08:55:47;;;;;;;4.93;1.77;;;15.50;99.90;;;16.12;67.28;94993.59;5026892;28;20471;-55
2022/10/03 08:58:45;;;;;;;2.33;1.70;;;15.70;99.90;;;16.48;66.89;94994.94;5027125;28;20472;-58
2022/10/03 09:01:27;;;;;;;7.80;1.63;;;16.00;99.90;;;16.71;65.78;95000.31;5024019;28;20498;-55
2022/10/03 09:04:43;;;;;;;3.00;1.23;;;16.30;99.90;;;16.81;65.20;95005.44;5026000;28;20475;-56
2022/10/03 09:07:25;;;;;;;1.90;1.50;;;16.50;99.90;;;16.84;64.69;94991.78;4987202;28;20460;-56
2022/10/03 09:10:53;;;;;;;1.37;1.27;;;16.50;99.90;;;16.92;64.09;94999.72;5023125;28;20460;-55
2022/10/03 09:14:00;;;;;;;1.77;1.67;;;16.60;99.90;;;17.15;64.01;95007.72;5024674;28;20455;-55
2022/10/03 09:16:47;;;;;;;3.50;1.40;;;16.80;99.90;;;17.34;63.38;95008.25;5023594;28;20447;-54
2022/10/03 09:20:04;;;;;;;1.93;1.20;;;17.00;99.90;;;17.42;62.80;95012.69;5023299;28;20504;-53
2022/10/03 09:23:04;;;;;;;5.43;1.70;;;17.10;99.90;;;17.43;62.76;95009.84;4982277;28;20456;-56
2022/10/03 09:25:52;;;;;;;4.70;1.33;;;17.10;99.90;;;17.38;62.60;95023.66;5026310;28;20969;-55
2022/10/03 09:29:05;;;;;;;3.20;1.43;;;17.10;99.70;;;17.35;63.21;95009.88;5026516;28;20457;-56
2022/10/03 09:32:18;;;;;;;2.27;0.97;;;17.10;99.80;;;17.34;62.28;95008.25;4979245;28;20543;-54
2022/10/03 09:35:45;;;;;;;2.10;1.20;;;17.10;99.30;;;17.33;62.07;95009.25;5025513;28;20552;-54
2022/10/03 09:39:14;;;;;;;1.77;1.03;;;17.10;99.10;;;17.42;61.39;95008.19;5024114;28;20824;-55
2022/10/03 09:42:33;;;;;;;2.00;1.10;;;17.10;98.80;;;17.49;61.28;95009.13;5025196;28;20476;-56
2022/10/03 09:45:59;;;;;;;1.83;1.30;;;17.20;98.70;;;17.49;60.91;95017.09;5023347;28;20497;-57
2022/10/03 09:48:44;;;;;;;1.87;1.67;;;17.20;98.50;;;17.53;60.77;95014.91;4965256;28;20460;-55
2022/10/03 09:51:35;;;;;;;1.67;1.47;;;17.30;98.40;;;17.66;61.26;95019.59;5023723;28;20900;-55
2022/10/03 09:54:48;;;;;;;3.83;1.80;;;17.40;98.40;;;18.09;60.55;95014.56;5024750;28;20445;-56
2022/10/03 09:58:04;;;;;;;1.50;1.40;;;17.60;98.70;;;18.70;59.39;95010.84;5024894;28;20453;-55
2022/10/03 10:00:46;;;;;;;2.03;1.20;;;18.20;98.10;;;19.23;57.29;95010.66;5024557;28;20503;-55
2022/10/03 10:03:50;;;;;;;3.13;1.40;;;18.70;96.10;;;19.65;55.88;94995.63;5023463;28;20453;-56
2022/10/03 10:06:41;;;;;;;4.70;1.20;;;19.10;95.30;;;19.89;55.48;94991.72;5018189;28;20510;-55
2022/10/03 10:09:44;;;;;;;0.90;0.83;;;19.40;94.60;;;20.10;52.91;94980.16;5022892;28;20476;-56
2022/10/03 10:12:43;;;;;;;1.10;0.97;;;19.60;92.30;;;20.19;53.85;94986.19;5024654;28;20939;-55
2022/10/03 10:16:01;;;;;;;4.20;1.07;;;19.80;93.00;;;20.26;53.46;94991.56;4998293;28;20790;-54
2022/10/03 10:19:13;;;;;;;1.00;0.80;;;19.90;92.30;;;20.23;52.72;94984.75;5024843;28;20866;-57
2022/10/03 10:22:05;;;;;;;1.33;0.90;;;19.90;91.70;;;20.14;52.86;94986.78;5023454;28;20579;-56
2022/10/03 10:25:23;;;;;;;1.77;0.70;;;19.90;91.40;;;20.13;52.79;94984.31;5023853;28;20524;-56
2022/10/03 10:28:44;;;;;;;0.90;0.80;;;19.80;91.00;;;20.20;51.80;94985.16;5004450;28;20495;-56
2022/10/03 10:31:52;;;;;;;3.63;0.80;;;19.80;91.00;;;20.29;52.00;94986.63;4981811;28;20531;-56
2022/10/03 10:35:08;;;;;;;0.80;0.70;;;19.90;91.00;;;20.39;51.64;94989.78;5024580;28;20534;-57
2022/10/03 10:38:06;;;;;;;0.90;0.80;;;20.00;90.00;;;20.36;50.55;95000.88;5024452;28;20989;-55
2022/10/03 10:41:29;;;;;;;2.07;1.00;;;20.00;88.70;;;20.23;51.48;95006.97;5022116;28;20527;-55
2022/10/03 10:44:57;;;;;;;0.93;0.83;;;20.00;88.70;;;20.12;50.56;95007.50;4995114;28;20457;-56
2022/10/03 10:48:09;;;;;;;1.37;0.87;;;19.90;88.30;;;20.04;52.03;94999.63;5025079;28;20572;-57
2022/10/03 10:51:20;;;;;;;2.07;1.10;;;19.80;88.00;;;19.96;51.66;94999.81;5026944;28;20472;-56
2022/10/03 10:54:23;;;;;;;3.30;1.00;;;19.70;88.50;;;19.92;50.79;94994.00;5024231;28;20952;-57
2022/10/03 10:57:15;;;;;;;18.10;1.53;;;19.60;88.10;;;19.83;52.03;94995.16;5022823;28;20460;-56
2022/10/03 11:00:25;;;;;;;2.60;1.10;;;19.50;89.30;;;19.84;52.27;95010.19;5023496;28;20550;-56
2022/10/03 11:03:47;;;;;;;1.07;0.93;;;19.50;89.70;;;20.03;52.06;94997.97;5020858;28;20492;-57
2022/10/03 11:07:03;;;;;;;1.20;1.10;;;19.60;89.70;;;20.22;51.26;95004.50;4988722;28;20869;-56
2022/10/03 11:10:16;;;;;;;2.50;1.40;;;19.80;89.40;;;20.27;51.45;95002.03;4993676;28;20476;-55
2022/10/03 11:13:35;;;;;;;3.87;1.20;;;19.90;88.60;;;20.27;50.95;95002.03;5023684;28;20472;-56
2022/10/03 11:17:02;;;;;;;1.20;1.10;;;19.90;88.20;;;20.15;51.69;95000.94;5024678;28;20476;-56
2022/10/03 11:20:17;;;;;;;2.13;2.03;;;19.80;86.90;;;20.02;51.54;94994.50;5027532;28;21095;-58
2022/10/03 11:23:25;;;;;;;3.40;1.53;;;19.80;87.70;;;19.94;51.74;95007.16;5008655;28;20492;-54
2022/10/03 11:26:31;;;;;;;1.80;1.70;;;19.60;87.50;;;20.04;51.05;95005.78;5025602;28;20476;-60
2022/10/03 11:29:48;;;;;;;1.77;1.67;;;19.70;87.00;;;20.06;50.73;94998.44;5028151;28;20448;-55
2022/10/03 11:33:12;;;;;;;2.37;2.17;;;19.70;85.90;;;19.92;50.69;95003.88;5027630;28;20510;-56
2022/10/03 11:36:51;;;;;;;8.53;2.43;;;19.60;86.50;;;19.76;51.06;94997.75;4995008;28;20476;-56
2022/10/03 11:39:26;;;;;;;3.10;2.80;;;19.50;86.30;;;19.64;51.53;94989.47;4983910;28;21043;-56
2022/10/03 11:41:58;;;;;;;2.73;2.53;;;19.40;86.60;;;19.62;51.92;94988.84;5025539;28;20507;-55
2022/10/03 11:44:26;;;;;;;2.63;2.43;;;19.40;86.80;;;19.63;51.81;94979.81;5028544;28;20526;-55
2022/10/03 11:47:23;;;;;;;2.50;2.30;;;19.40;87.10;;;19.70;50.51;94975.38;5028629;28;20452;-56
2022/10/03 11:50:40;;;;;;;4.03;2.80;;;19.40;86.10;;;19.61;50.17;94976.53;5027795;28;20472;-55
2022/10/03 11:53:44;;;;;;;37.17;3.70;;;19.30;84.30;;;19.47;50.02;94980.94;5010808;28;20460;-56
2022/10/03 11:56:30;;;;;;;3.97;2.43;;;19.20;84.00;;;19.37;50.25;94977.75;5026461;28;21027;-55
2022/10/03 11:59:36;;;;;;;2.40;2.30;;;19.10;84.90;;;19.30;51.32;94979.53;5027007;28;20968;-57
2022/10/03 12:02:21;;;;;;;2.60;2.50;;;19.00;84.70;;;19.24;50.59;94974.97;5025087;28;20491;-56
2022/10/03 12:04:58;;;;;;;3.50;3.20;;;19.00;84.00;;;19.22;50.48;94967.16;5025417;28;20477;-57
2022/10/03 12:10:40;;;;;;;2.23;2.13;;;18.90;85.00;;;19.27;50.80;94970.09;5026906;28;20467;-57
2022/10/03 12:13:12;;;;;;;2.40;2.30;;;18.90;83.90;;;19.27;50.66;94975.41;5024828;28;20448;-56
2022/10/03 12:15:42;;;;;;;2.33;1.63;;;18.90;83.60;;;19.29;50.71;94975.22;5028175;28;20460;-56
2022/10/03 12:18:13;;;;;;;2.10;2.00;;;18.90;84.20;;;19.31;50.49;94967.84;5024660;28;20495;-55
2022/10/03 12:21:09;;;;;;;2.20;2.10;;;18.90;83.00;;;19.33;49.41;94957.81;5027699;28;20530;-55